sensor_id;sensor_type;location;lat;lon;timestamp;P1;durP1;ratioP1;P2;durP2;ratioP2
38581;SDS011;24349;53.720;10.014;2022-10-15T09:20:44;31.27;;;19.73;;
38581;SDS011;24349;53.720;10.014;2022-10-15T09:23:17;30.35;;;20.95;;
38581;SDS011;24349;53.720;10.014;2022-10-15T09:25:53;28.33;;;19.55;;
38581;SDS011;24349;53.720;10.014;2022-10-15T09:28:24;27.92;;;20.73;;
38581;SDS011;24349;53.720;10.014;2022-10-15T09:30:56;28.70;;;20.67;;
38581;SDS011;24349;53.720;10.014;2022-10-15T09:36:06;29.73;;;20.70;;
38581;SDS011;24349;53.720;10.014;2022-10-15T09:43:46;28.00;;;19.63;;
38581;SDS011;24349;53.720;10.014;2022-10-15T09:46:15;29.15;;;19.52;;
38581;SDS011;24349;53.720;10.014;2022-10-15T09:48:49;25.65;;;18.48;;
38581;SDS011;24349;53.720;10.014;2022-10-15T09:51:37;26.25;;;17.98;;
38581;SDS011;24349;53.720;10.014;2022-10-15T09:56:36;23.60;;;16.25;;
38581;SDS011;24349;53.720;10.014;2022-10-15T09:59:04;23.00;;;16.67;;
38581;SDS011;24349;53.720;10.014;2022-10-15T10:01:30;20.67;;;15.75;;
38581;SDS011;24349;53.720;10.014;2022-10-15T10:04:15;22.02;;;17.38;;
38581;SDS011;24349;53.720;10.014;2022-10-15T10:09:15;20.42;;;13.73;;
38581;SDS011;24349;53.720;10.014;2022-10-15T10:11:54;18.73;;;13.20;;
38581;SDS011;24349;53.720;10.014;2022-10-15T10:14:27;18.45;;;13.57;;
38581;SDS011;24349;53.720;10.014;2022-10-15T10:17:04;18.17;;;15.07;;
38581;SDS011;24349;53.720;10.014;2022-10-15T10:19:41;21.25;;;14.68;;
38581;SDS011;24349;53.720;10.014;2022-10-15T10:22:17;18.60;;;13.25;;
38581;SDS011;24349;53.720;10.014;2022-10-15T10:24:44;18.85;;;14.20;;
38581;SDS011;24349;53.720;10.014;2022-10-15T10:27:19;20.48;;;14.38;;
38581;SDS011;24349;53.720;10.014;2022-10-15T10:29:49;21.63;;;16.13;;
38581;SDS011;24349;53.720;10.014;2022-10-15T10:32:19;19.58;;;14.13;;
38581;SDS011;24349;53.720;10.014;2022-10-15T10:34:52;21.17;;;14.30;;
38581;SDS011;24349;53.720;10.014;2022-10-15T10:37:19;20.70;;;14.10;;
38581;SDS011;24349;53.720;10.014;2022-10-15T10:39:45;19.58;;;14.07;;
38581;SDS011;24349;53.720;10.014;2022-10-15T10:44:44;22.58;;;13.50;;
38581;SDS011;24349;53.720;10.014;2022-10-15T10:49:42;20.48;;;14.50;;
38581;SDS011;24349;53.720;10.014;2022-10-15T10:52:20;18.17;;;13.02;;
38581;SDS011;24349;53.720;10.014;2022-10-15T10:57:48;17.45;;;11.93;;
38581;SDS011;24349;53.720;10.014;2022-10-15T11:03:10;19.33;;;13.25;;
38581;SDS011;24349;53.720;10.014;2022-10-15T11:05:44;16.02;;;11.35;;
38581;SDS011;24349;53.720;10.014;2022-10-15T11:19:29;15.35;;;10.23;;
38581;SDS011;24349;53.720;10.014;2022-10-15T11:22:07;16.80;;;9.75;;
38581;SDS011;24349;53.720;10.014;2022-10-15T11:24:51;15.40;;;9.18;;
38581;SDS011;24349;53.720;10.014;2022-10-15T11:38:38;13.98;;;7.32;;
38581;SDS011;24349;53.720;10.014;2022-10-15T11:43:57;9.65;;;5.75;;
38581;SDS011;24349;53.720;10.014;2022-10-15T11:46:55;7.95;;;4.45;;
38581;SDS011;24349;53.720;10.014;2022-10-15T11:55:13;10.93;;;5.63;;
38581;SDS011;24349;53.720;10.014;2022-10-15T11:57:59;8.98;;;5.80;;
38581;SDS011;24349;53.720;10.014;2022-10-15T12:00:33;9.40;;;5.90;;
38581;SDS011;24349;53.720;10.014;2022-10-15T12:03:06;9.07;;;5.10;;
38581;SDS011;24349;53.720;10.014;2022-10-15T12:05:44;7.60;;;4.47;;
38581;SDS011;24349;53.720;10.014;2022-10-15T12:08:14;10.60;;;6.15;;
38581;SDS011;24349;53.720;10.014;2022-10-15T12:16:30;9.68;;;4.82;;
38581;SDS011;24349;53.720;10.014;2022-10-15T12:18:44;9.63;;;5.57;;
38581;SDS011;24349;53.720;10.014;2022-10-15T12:24:02;13.15;;;4.50;;
38581;SDS011;24349;53.720;10.014;2022-10-15T12:26:34;6.47;;;3.60;;
38581;SDS011;24349;53.720;10.014;2022-10-15T12:29:01;6.90;;;3.67;;
38581;SDS011;24349;53.720;10.014;2022-10-15T12:31:46;7.47;;;3.63;;
38581;SDS011;24349;53.720;10.014;2022-10-15T12:34:35;8.43;;;3.40;;
38581;SDS011;24349;53.720;10.014;2022-10-15T12:37:06;5.67;;;2.60;;
38581;SDS011;24349;53.720;10.014;2022-10-15T12:39:41;6.25;;;2.85;;
38581;SDS011;24349;53.720;10.014;2022-10-15T12:42:22;7.60;;;3.08;;
38581;SDS011;24349;53.720;10.014;2022-10-15T12:44:51;7.20;;;2.90;;
38581;SDS011;24349;53.720;10.014;2022-10-15T12:48:11;10.02;;;2.67;;
38581;SDS011;24349;53.720;10.014;2022-10-15T12:50:17;6.55;;;2.58;;
38581;SDS011;24349;53.720;10.014;2022-10-15T12:55:37;7.00;;;2.78;;
38581;SDS011;24349;53.720;10.014;2022-10-15T13:08:49;5.70;;;3.03;;
38581;SDS011;24349;53.720;10.014;2022-10-15T13:11:23;6.57;;;3.33;;
38581;SDS011;24349;53.720;10.014;2022-10-15T13:16:50;7.22;;;3.50;;
38581;SDS011;24349;53.720;10.014;2022-10-15T13:21:51;6.85;;;3.88;;
38581;SDS011;24349;53.720;10.014;2022-10-15T13:24:19;7.53;;;3.55;;
38581;SDS011;24349;53.720;10.014;2022-10-15T13:26:47;7.10;;;3.80;;
38581;SDS011;24349;53.720;10.014;2022-10-15T13:29:14;6.72;;;3.85;;
38581;SDS011;24349;53.720;10.014;2022-10-15T13:31:42;7.82;;;3.83;;
38581;SDS011;24349;53.720;10.014;2022-10-15T13:36:52;9.20;;;4.65;;
38581;SDS011;24349;53.720;10.014;2022-10-15T13:42:01;8.63;;;4.32;;
38581;SDS011;24349;53.720;10.014;2022-10-15T13:44:34;7.50;;;4.00;;
38581;SDS011;24349;53.720;10.014;2022-10-15T13:47:00;19.40;;;4.90;;
38581;SDS011;24349;53.720;10.014;2022-10-15T13:49:26;8.10;;;4.38;;
38581;SDS011;24349;53.720;10.014;2022-10-15T13:51:51;7.68;;;4.35;;
38581;SDS011;24349;53.720;10.014;2022-10-15T13:54:19;7.82;;;4.05;;
38581;SDS011;24349;53.720;10.014;2022-10-15T13:56:53;8.35;;;4.82;;
38581;SDS011;24349;53.720;10.014;2022-10-15T13:59:22;6.32;;;3.92;;
38581;SDS011;24349;53.720;10.014;2022-10-15T14:01:50;7.90;;;4.28;;
38581;SDS011;24349;53.720;10.014;2022-10-15T14:04:18;8.65;;;4.22;;
38581;SDS011;24349;53.720;10.014;2022-10-15T14:06:51;6.88;;;3.90;;
38581;SDS011;24349;53.720;10.014;2022-10-15T14:09:41;7.53;;;4.18;;
38581;SDS011;24349;53.720;10.014;2022-10-15T14:12:06;7.38;;;4.13;;
38581;SDS011;24349;53.720;10.014;2022-10-15T14:14:38;10.00;;;5.50;;
38581;SDS011;24349;53.720;10.014;2022-10-15T14:17:09;11.20;;;5.20;;
38581;SDS011;24349;53.720;10.014;2022-10-15T14:19:57;10.40;;;6.25;;
38581;SDS011;24349;53.720;10.014;2022-10-15T14:22:25;10.85;;;5.75;;
38581;SDS011;24349;53.720;10.014;2022-10-15T14:24:53;9.73;;;5.93;;
38581;SDS011;24349;53.720;10.014;2022-10-15T14:27:21;9.13;;;6.43;;
38581;SDS011;24349;53.720;10.014;2022-10-15T14:29:49;8.80;;;6.10;;
38581;SDS011;24349;53.720;10.014;2022-10-15T14:34:51;10.70;;;6.67;;
38581;SDS011;24349;53.720;10.014;2022-10-15T14:42:45;9.93;;;5.97;;
38581;SDS011;24349;53.720;10.014;2022-10-15T14:45:27;11.07;;;7.60;;
38581;SDS011;24349;53.720;10.014;2022-10-15T14:48:17;10.73;;;7.28;;
38581;SDS011;24349;53.720;10.014;2022-10-15T14:50:52;9.50;;;7.30;;
38581;SDS011;24349;53.720;10.014;2022-10-15T14:53:30;12.48;;;8.95;;
38581;SDS011;24349;53.720;10.014;2022-10-15T14:56:02;12.23;;;8.70;;
38581;SDS011;24349;53.720;10.014;2022-10-15T14:58:31;11.77;;;7.82;;
38581;SDS011;24349;53.720;10.014;2022-10-15T15:00:58;12.45;;;9.10;;
38581;SDS011;24349;53.720;10.014;2022-10-15T15:03:27;11.18;;;8.20;;
38581;SDS011;24349;53.720;10.014;2022-10-15T15:05:55;12.57;;;9.07;;
38581;SDS011;24349;53.720;10.014;2022-10-15T15:08:22;12.85;;;9.07;;
38581;SDS011;24349;53.720;10.014;2022-10-15T15:10:49;10.95;;;8.68;;
38581;SDS011;24349;53.720;10.014;2022-10-15T15:13:20;11.15;;;8.60;;
38581;SDS011;24349;53.720;10.014;2022-10-15T15:15:50;10.90;;;8.88;;
38581;SDS011;24349;53.720;10.014;2022-10-15T15:18:17;16.17;;;10.70;;
38581;SDS011;24349;53.720;10.014;2022-10-15T15:20:42;11.77;;;9.73;;
38581;SDS011;24349;53.720;10.014;2022-10-15T15:23:15;19.13;;;10.77;;
38581;SDS011;24349;53.720;10.014;2022-10-15T15:25:43;13.30;;;10.82;;
38581;SDS011;24349;53.720;10.014;2022-10-15T15:28:13;11.75;;;9.23;;
38581;SDS011;24349;53.720;10.014;2022-10-15T15:30:41;12.77;;;9.25;;
38581;SDS011;24349;53.720;10.014;2022-10-15T15:33:12;14.38;;;10.90;;
38581;SDS011;24349;53.720;10.014;2022-10-15T15:38:20;17.35;;;11.05;;
38581;SDS011;24349;53.720;10.014;2022-10-15T15:40:47;13.20;;;10.70;;
38581;SDS011;24349;53.720;10.014;2022-10-15T15:43:14;15.05;;;11.93;;
38581;SDS011;24349;53.720;10.014;2022-10-15T15:45:42;14.45;;;11.00;;
38581;SDS011;24349;53.720;10.014;2022-10-15T15:48:08;14.38;;;10.35;;
38581;SDS011;24349;53.720;10.014;2022-10-15T15:50:34;17.63;;;11.88;;
38581;SDS011;24349;53.720;10.014;2022-10-15T15:53:00;13.35;;;11.02;;
38581;SDS011;24349;53.720;10.014;2022-10-15T15:55:27;13.13;;;10.32;;
38581;SDS011;24349;53.720;10.014;2022-10-15T15:57:52;14.82;;;10.55;;
38581;SDS011;24349;53.720;10.014;2022-10-15T16:00:18;13.90;;;11.48;;
38581;SDS011;24349;53.720;10.014;2022-10-15T16:02:44;14.57;;;11.35;;
38581;SDS011;24349;53.720;10.014;2022-10-15T16:05:11;13.75;;;11.38;;
38581;SDS011;24349;53.720;10.014;2022-10-15T16:07:39;14.00;;;11.35;;
38581;SDS011;24349;53.720;10.014;2022-10-15T16:10:06;15.95;;;12.15;;
38581;SDS011;24349;53.720;10.014;2022-10-15T16:12:35;13.45;;;11.27;;
38581;SDS011;24349;53.720;10.014;2022-10-15T16:15:02;13.68;;;11.73;;
38581;SDS011;24349;53.720;10.014;2022-10-15T16:17:35;17.75;;;12.23;;
38581;SDS011;24349;53.720;10.014;2022-10-15T16:20:10;13.88;;;11.88;;
38581;SDS011;24349;53.720;10.014;2022-10-15T16:22:38;15.45;;;12.55;;
38581;SDS011;24349;53.720;10.014;2022-10-15T16:25:11;13.73;;;11.88;;
38581;SDS011;24349;53.720;10.014;2022-10-15T16:27:40;13.30;;;11.32;;
38581;SDS011;24349;53.720;10.014;2022-10-15T16:30:15;17.30;;;13.38;;
38581;SDS011;24349;53.720;10.014;2022-10-15T16:35:50;15.40;;;12.73;;
38581;SDS011;24349;53.720;10.014;2022-10-15T16:38:57;17.38;;;14.10;;
38581;SDS011;24349;53.720;10.014;2022-10-15T16:41:54;17.70;;;13.80;;
38581;SDS011;24349;53.720;10.014;2022-10-15T16:44:27;17.25;;;15.07;;
38581;SDS011;24349;53.720;10.014;2022-10-15T16:46:56;18.27;;;14.43;;
38581;SDS011;24349;53.720;10.014;2022-10-15T16:49:57;18.77;;;15.98;;
38581;SDS011;24349;53.720;10.014;2022-10-15T16:52:32;20.75;;;16.08;;
38581;SDS011;24349;53.720;10.014;2022-10-15T16:55:09;18.02;;;15.30;;
38581;SDS011;24349;53.720;10.014;2022-10-15T16:57:45;16.70;;;14.25;;
